Time;durP1;ratioP1;P1;durP2;ratioP2;P2;SDS_P1;SDS_P2;PMS_P1;PMS_P2;Temp;Humidity;BMP_temperature;BMP_pressure;BME280_temperature;BME280_humidity;BME280_pressure;Samples;Min_cycle;Max_cycle;Signal;HPM_P1;HPM_P2
2022/11/23 00:00:36;;;;;;;;;;;;;;;7.08;100.00;99453.78;4992948;28;20435;-59
2022/11/23 00:03:01;;;;;;;;;;;;;;;7.07;100.00;99462.38;4992995;28;20484;-59
2022/11/23 00:05:27;;;;;;;;;;;;;;;7.06;100.00;99452.50;4993172;28;20381;-58
2022/11/23 00:07:53;;;;;;;;;;;;;;;7.04;100.00;99458.28;4993005;28;19926;-59
2022/11/23 00:10:18;;;;;;;;;;;;;;;7.03;100.00;99460.22;4992972;28;19953;-60
2022/11/23 00:12:44;;;;;;;;;;;;;;;7.15;100.00;99461.59;4992714;28;20293;-60
2022/11/23 00:15:11;;;;;;;;;;;;;;;7.09;100.00;99458.16;4992829;28;19917;-59
2022/11/23 00:17:36;;;;;;;;;;;;;;;7.06;100.00;99464.28;4992790;28;19918;-59
2022/11/23 00:20:01;;;;;;;;;;;;;;;7.05;100.00;99459.91;4992443;28;20020;-59
2022/11/23 00:22:27;;;;;;;;;;;;;;;7.00;100.00;99463.59;4992557;28;20267;-59
2022/11/23 00:24:52;;;;;;;;;;;;;;;7.04;100.00;99463.78;4992807;28;19913;-60
2022/11/23 00:27:17;;;;;;;;;;;;;;;7.07;100.00;99465.91;4992615;28;20012;-59
2022/11/23 00:29:42;;;;;;;;;;;;;;;7.08;100.00;99466.75;4992685;28;19996;-59
2022/11/23 00:32:07;;;;;;;;;;;;;;;7.11;100.00;99466.91;4991213;28;19972;-58
2022/11/23 00:34:32;;;;;;;;;;;;;;;7.12;100.00;99471.28;4991953;28;20352;-59
2022/11/23 00:36:58;;;;;;;;;;;;;;;7.19;100.00;99473.56;4992512;28;20004;-59
2022/11/23 00:39:23;;;;;;;;;;;;;;;7.15;100.00;99484.38;4992859;28;19914;-59
2022/11/23 00:41:48;;;;;;;;;;;;;;;7.15;100.00;99478.88;4990170;28;20492;-58
2022/11/23 00:44:13;;;;;;;;;;;;;;;7.14;100.00;99484.72;4992654;28;20345;-58
2022/11/23 00:46:38;;;;;;;;;;;;;;;7.12;100.00;99478.72;4992598;28;20005;-59
2022/11/23 00:49:05;;;;;;;;;;;;;;;7.12;100.00;99478.72;4992660;28;20012;-59
2022/11/23 00:51:31;;;;;;;;;;;;;;;7.17;100.00;99487.63;4992480;28;19918;-59
2022/11/23 00:53:58;;;;;;;;;;;;;;;7.17;100.00;99493.13;4992424;28;19918;-59
2022/11/23 00:56:24;;;;;;;;;;;;;;;7.17;100.00;99487.63;4992474;28;19953;-59
2022/11/23 00:58:49;;;;;;;;;;;;;;;7.21;100.00;99485.06;4992373;28;19965;-59
2022/11/23 01:01:15;;;;;;;;;;;;;;;7.22;100.00;99485.88;4992189;28;19922;-58
2022/11/23 01:03:42;;;;;;;;;;;;;;;7.18;100.00;99491.19;4992362;28;19920;-59
2022/11/23 01:06:09;;;;;;;;;;;;;;;7.24;100.00;99489.13;4992521;28;19922;-59
2022/11/23 01:08:34;;;;;;;;;;;;;;;7.20;100.00;99491.69;4992394;28;20318;-60
2022/11/23 01:11:00;;;;;;;;;;;;;;;7.23;100.00;99498.50;4992353;28;19920;-59
2022/11/23 01:13:25;;;;;;;;;;;;;;;7.21;100.00;99496.06;4992582;28;19913;-59
2022/11/23 01:15:51;;;;;;;;;;;;;;;7.22;100.00;99499.63;4992288;28;19925;-58
2022/11/23 01:18:16;;;;;;;;;;;;;;;7.19;100.00;99501.06;4992232;28;19924;-58
2022/11/23 01:20:41;;;;;;;;;;;;;;;7.30;100.00;99496.91;4991979;28;19918;-57
2022/11/23 01:23:06;;;;;;;;;;;;;;;7.21;100.00;99487.00;4992161;28;19964;-59
2022/11/23 01:25:31;;;;;;;;;;;;;;;7.21;100.00;99501.56;4992454;28;19918;-59
2022/11/23 01:27:57;;;;;;;;;;;;;;;7.19;100.00;99506.56;4990980;28;19921;-60
2022/11/23 01:30:22;;;;;;;;;;;;;;;7.15;100.00;99500.09;4992248;28;20378;-58
2022/11/23 01:32:47;;;;;;;;;;;;;;;7.13;100.00;99503.13;4992062;28;19913;-58
2022/11/23 01:35:12;;;;;;;;;;;;;;;7.15;100.00;99509.13;4990628;28;19922;-58
2022/11/23 01:37:38;;;;;;;;;;;;;;;7.15;100.00;99514.63;4992036;28;19918;-58
2022/11/23 01:40:03;;;;;;;;;;;;;;;7.20;100.00;99513.69;4991747;28;19926;-58
2022/11/23 01:42:47;;;;;;;;;;;;;;;7.18;100.00;99510.44;4989287;28;20436;-58
2022/11/23 01:45:31;;;;;;;;;;;;;;;7.20;100.00;99510.94;4992297;28;19960;-58
2022/11/23 01:47:56;;;;;;;;;;;;;;;7.19;100.00;99512.06;4995736;28;19918;-59
2022/11/23 01:50:22;;;;;;;;;;;;;;;7.19;100.00;99512.06;4995500;28;20381;-59
2022/11/23 01:52:47;;;;;;;;;;;;;;;7.21;100.00;99520.03;4995554;28;19918;-58
2022/11/23 01:55:12;;;;;;;;;;;;;;;7.22;100.00;99524.41;4995513;28;19917;-59
2022/11/23 01:57:39;;;;;;;;;;;;;;;7.25;100.00;99515.50;4995551;28;19925;-59
2022/11/23 02:00:05;;;;;;;;;;;;;;;7.24;100.00;99513.88;4995508;28;19914;-59
2022/11/23 02:02:31;;;;;;;;;;;;;;;7.22;100.00;99527.94;4995217;28;19914;-59
2022/11/23 02:04:57;;;;;;;;;;;;;;;7.24;100.00;99525.69;4994110;28;19953;-60
2022/11/23 02:07:24;;;;;;;;;;;;;;;7.20;100.00;99527.44;4995699;28;19918;-59
2022/11/23 02:09:49;;;;;;;;;;;;;;;7.17;100.00;99533.59;4993508;28;19918;-59
2022/11/23 02:12:14;;;;;;;;;;;;;;;7.18;100.00;99538.78;4975976;28;20341;-60
2022/11/23 02:14:40;;;;;;;;;;;;;;;7.21;100.00;99533.78;4976471;28;20321;-59
2022/11/23 02:17:05;;;;;;;;;;;;;;;7.18;100.00;99536.03;4976164;28;19925;-59
2022/11/23 02:19:43;;;;;;;;;;;;;;;7.13;100.00;99529.84;4975486;28;19926;-59
2022/11/23 02:22:13;;;;;;;;;;;;;;;7.19;100.00;99531.31;4975420;28;20369;-59
2022/11/23 02:24:44;;;;;;;;;;;;;;;7.21;100.00;99533.78;4975394;28;20008;-58
2022/11/23 02:27:09;;;;;;;;;;;;;;;7.21;100.00;99542.03;4975643;28;20325;-60
2022/11/23 02:29:34;;;;;;;;;;;;;;;7.20;100.00;99535.69;4975688;28;19910;-59
2022/11/23 02:32:00;;;;;;;;;;;;;;;7.22;100.00;99547.19;4975487;28;19914;-58
2022/11/23 02:34:25;;;;;;;;;;;;;;;7.22;100.00;99533.44;4975381;28;19914;-59
2022/11/23 02:36:54;;;;;;;;;;;;;;;7.24;100.00;99541.38;4975434;28;19920;-59
2022/11/23 02:39:25;;;;;;;;;;;;;;;7.23;100.00;99537.81;4975523;28;20408;-60
2022/11/23 02:41:51;;;;;;;;;;;;;;;7.27;100.00;99538.00;4972548;28;19914;-59
2022/11/23 02:44:27;;;;;;;;;;;;;;;7.31;100.00;99536.25;4975475;28;19995;-59
2022/11/23 02:46:53;;;;;;;;;;;;;;;7.27;100.00;99540.75;4975507;28;19917;-59
2022/11/23 02:49:18;;;;;;;;;;;;;;;7.36;100.00;99549.06;4975059;28;20393;-59
2022/11/23 02:51:43;;;;;;;;;;;;;;;7.29;100.00;99542.06;4975362;28;20226;-58
2022/11/23 02:54:09;;;;;;;;;;;;;;;7.28;100.00;99553.38;4973891;28;20285;-59
2022/11/23 02:56:34;;;;;;;;;;;;;;;7.29;100.00;99544.81;4974728;28;20393;-59
2022/11/23 02:58:59;;;;;;;;;;;;;;;7.30;100.00;99553.88;4974990;28;19914;-58
2022/11/23 03:01:24;;;;;;;;;;;;;;;7.32;100.00;99546.13;4973836;28;19914;-59
2022/11/23 03:03:50;;;;;;;;;;;;;;;7.33;100.00;99548.56;4973619;28;19949;-59
2022/11/23 03:06:15;;;;;;;;;;;;;;;7.39;100.00;99554.75;4975473;28;19920;-59
2022/11/23 03:08:41;;;;;;;;;;;;;;;7.33;100.00;99548.56;4975619;28;20453;-59
2022/11/23 03:11:06;;;;;;;;;;;;;;;7.33;100.00;99553.22;4975472;28;20364;-59
2022/11/23 03:13:31;;;;;;;;;;;;;;;7.38;100.00;99550.38;4975053;28;19964;-60
2022/11/23 03:15:56;;;;;;;;;;;;;;;7.40;100.00;99541.78;4974426;28;19918;-59
2022/11/23 03:18:22;;;;;;;;;;;;;;;7.41;100.00;99547.00;4974495;28;20108;-59
2022/11/23 03:20:47;;;;;;;;;;;;;;;7.36;100.00;99552.63;4974285;28;19918;-59
2022/11/23 03:23:12;;;;;;;;;;;;;;;7.36;100.00;99551.81;4974360;28;19918;-59
2022/11/23 03:25:37;;;;;;;;;;;;;;;7.37;100.00;99557.00;4972947;28;20009;-57
2022/11/23 03:28:03;;;;;;;;;;;;;;;7.36;100.00;99552.63;4974462;28;20317;-57
2022/11/23 03:30:29;;;;;;;;;;;;;;;7.36;100.00;99552.63;4974453;28;19945;-59
2022/11/23 03:32:54;;;;;;;;;;;;;;;7.41;100.00;99554.41;4974232;28;20008;-58
2022/11/23 03:35:20;;;;;;;;;;;;;;;7.40;100.00;99558.28;4974690;28;19975;-58
2022/11/23 03:37:45;;;;;;;;;;;;;;;7.31;100.00;99552.75;4974515;28;20381;-59
2022/11/23 03:40:10;;;;;;;;;;;;;;;7.29;100.00;99555.81;4974604;28;19926;-59
2022/11/23 03:42:38;;;;;;;;;;;;;;;7.31;100.00;99558.25;4974599;28;19917;-60
2022/11/23 03:45:03;;;;;;;;;;;;;;;7.28;100.00;99558.88;4974257;28;19972;-59
2022/11/23 03:47:28;;;;;;;;;;;;;;;7.28;100.00;99556.94;4974186;28;20000;-59
2022/11/23 03:49:53;;;;;;;;;;;;;;;7.28;100.00;99556.13;4974245;28;20017;-59
2022/11/23 03:52:19;;;;;;;;;;;;;;;7.22;100.00;99571.16;4971722;28;19914;-59
2022/11/23 03:54:44;;;;;;;;;;;;;;;7.18;100.00;99560.78;4974086;28;19914;-59
2022/11/23 03:57:09;;;;;;;;;;;;;;;7.19;100.00;99569.81;4973841;28;19957;-58
2022/11/23 03:59:34;;;;;;;;;;;;;;;7.14;100.00;99564.47;4973921;28;19914;-58
2022/11/23 04:01:59;;;;;;;;;;;;;;;7.15;100.00;99566.91;4974061;28;19914;-57
2022/11/23 04:04:24;;;;;;;;;;;;;;;7.13;100.00;99573.84;4974047;28;19977;-58
2022/11/23 04:06:50;;;;;;;;;;;;;;;7.10;100.00;99577.22;4972189;28;20468;-58
2022/11/23 04:09:15;;;;;;;;;;;;;;;7.11;100.00;99570.59;4973039;28;20005;-58
2022/11/23 04:11:40;;;;;;;;;;;;;;;7.10;100.00;99566.22;4973627;28;19942;-58
2022/11/23 04:14:05;;;;;;;;;;;;;;;7.20;100.00;99565.94;4973656;28;19913;-59
2022/11/23 04:16:31;;;;;;;;;;;;;;;7.11;100.00;99570.59;4973356;28;19914;-59
2022/11/23 04:18:56;;;;;;;;;;;;;;;7.15;100.00;99571.59;4973268;28;19945;-58
2022/11/23 04:21:21;;;;;;;;;;;;;;;7.11;100.00;99573.34;4971896;28;19925;-59
2022/11/23 04:23:46;;;;;;;;;;;;;;;7.14;100.00;99572.72;4973312;28;20374;-58
2022/11/23 04:26:11;;;;;;;;;;;;;;;7.10;100.00;99572.53;4973734;28;19920;-58
2022/11/23 04:28:37;;;;;;;;;;;;;;;7.18;100.00;99568.19;4973135;28;20354;-59
2022/11/23 04:31:02;;;;;;;;;;;;;;;7.15;100.00;99566.09;4973440;28;20008;-59
2022/11/23 04:33:27;;;;;;;;;;;;;;;7.14;100.00;99576.28;4973545;28;20403;-59
2022/11/23 04:35:52;;;;;;;;;;;;;;;7.13;100.00;99571.91;4973452;28;19914;-59
2022/11/23 04:38:18;;;;;;;;;;;;;;;7.13;100.00;99571.09;4973489;28;19914;-59
2022/11/23 04:40:45;;;;;;;;;;;;;;;7.13;100.00;99569.16;4971908;28;19914;-58
2022/11/23 04:43:10;;;;;;;;;;;;;;;7.12;100.00;99569.47;4973476;28;19918;-59
2022/11/23 04:45:39;;;;;;;;;;;;;;;7.15;100.00;99568.84;4972121;28;19915;-61
2022/11/23 04:48:05;;;;;;;;;;;;;;;7.13;100.00;99568.34;4973392;28;20075;-60
2022/11/23 04:50:30;;;;;;;;;;;;;;;7.12;100.00;99569.47;4973214;28;20786;-60
2022/11/23 04:52:55;;;;;;;;;;;;;;;7.14;100.00;99579.03;4973348;28;19924;-60
2022/11/23 04:55:20;;;;;;;;;;;;;;;7.16;100.00;99575.97;4972992;28;20270;-60
2022/11/23 04:57:45;;;;;;;;;;;;;;;7.14;100.00;99572.72;4971032;28;20023;-60
2022/11/23 05:00:11;;;;;;;;;;;;;;;7.15;100.00;99566.91;4972880;28;19996;-59
2022/11/23 05:02:37;;;;;;;;;;;;;;;7.20;100.00;99562.41;4972890;28;19914;-60
2022/11/23 05:05:02;;;;;;;;;;;;;;;7.18;100.00;99569.03;4972819;28;19914;-60
2022/11/23 05:07:27;;;;;;;;;;;;;;;7.15;100.00;99566.91;4971379;28;19957;-60
2022/11/23 05:09:52;;;;;;;;;;;;;;;7.14;100.00;99561.72;4972960;28;19918;-59
2022/11/23 05:12:18;;;;;;;;;;;;;;;7.17;100.00;99564.66;4973132;28;20017;-59
2022/11/23 05:14:43;;;;;;;;;;;;;;;7.15;100.00;99558.66;4972914;28;19914;-58
2022/11/23 05:17:08;;;;;;;;;;;;;;;7.18;100.00;99565.44;4973148;28;19918;-59
2022/11/23 05:19:33;;;;;;;;;;;;;;;7.17;100.00;99566.59;4974070;28;19966;-59
2022/11/23 05:21:58;;;;;;;;;;;;;;;7.15;100.00;99563.34;4977219;28;19922;-58
2022/11/23 05:24:24;;;;;;;;;;;;;;;7.13;100.00;99562.84;4976987;28;19914;-59
2022/11/23 05:26:49;;;;;;;;;;;;;;;7.12;100.00;99569.47;4976859;28;19914;-58
2022/11/23 05:29:14;;;;;;;;;;;;;;;7.15;100.00;99566.91;4976853;28;20278;-58
2022/11/23 05:31:39;;;;;;;;;;;;;;;7.11;100.00;99570.59;4976681;28;20289;-59
2022/11/23 05:34:04;;;;;;;;;;;;;;;7.09;100.00;99567.34;4976754;28;19970;-58
2022/11/23 05:36:30;;;;;;;;;;;;;;;7.06;100.00;99573.47;4977015;28;19921;-58
2022/11/23 05:38:55;;;;;;;;;;;;;;;7.00;100.00;99570.84;4976496;28;20048;-59
2022/11/23 05:41:20;;;;;;;;;;;;;;;6.99;100.00;99571.97;4976157;28;19914;-58
2022/11/23 05:43:45;;;;;;;;;;;;;;;7.00;100.00;99575.53;4976155;28;19936;-59
2022/11/23 05:46:10;;;;;;;;;;;;;;;6.96;100.00;99569.03;4976284;28;20262;-58
2022/11/23 05:48:36;;;;;;;;;;;;;;;6.94;100.00;99572.09;4976658;28;20400;-59
2022/11/23 05:51:01;;;;;;;;;;;;;;;6.95;100.00;99571.00;4976674;28;19957;-58
2022/11/23 05:53:26;;;;;;;;;;;;;;;6.93;100.00;99575.97;4976444;28;20293;-59
2022/11/23 05:55:52;;;;;;;;;;;;;;;6.92;100.00;99576.31;4975682;28;19925;-60
2022/11/23 05:58:17;;;;;;;;;;;;;;;6.90;100.00;99579.34;4974869;28;19926;-59
2022/11/23 06:00:42;;;;;;;;;;;;;;;6.89;100.00;99574.16;4976324;28;20021;-59
2022/11/23 06:03:07;;;;;;;;;;;;;;;6.86;100.00;99576.41;4976253;28;20291;-60
2022/11/23 06:05:32;;;;;;;;;;;;;;;6.84;100.00;99575.94;4976231;28;19988;-59
2022/11/23 06:07:58;;;;;;;;;;;;;;;6.82;100.00;99571.84;4976256;28;19941;-60
2022/11/23 06:10:23;;;;;;;;;;;;;;;6.78;100.00;99570.88;4976341;28;20432;-59
2022/11/23 06:12:48;;;;;;;;;;;;;;;6.78;100.00;99576.38;4976091;28;19984;-60
2022/11/23 06:15:14;;;;;;;;;;;;;;;6.76;100.00;99578.59;4976326;28;19926;-60
2022/11/23 06:17:39;;;;;;;;;;;;;;;6.74;100.00;99578.94;4976303;28;19921;-60
2022/11/23 06:20:05;;;;;;;;;;;;;;;6.71;100.00;99574.84;4975721;28;19918;-60
2022/11/23 06:22:30;;;;;;;;;;;;;;;6.70;100.00;99569.66;4994020;28;19928;-60
2022/11/23 06:24:56;;;;;;;;;;;;;;;6.69;100.00;99574.38;4993471;28;19917;-60
2022/11/23 06:27:21;;;;;;;;;;;;;;;6.71;100.00;99580.34;4993408;28;20342;-60
2022/11/23 06:29:46;;;;;;;;;;;;;;;6.75;100.00;99583.31;4993466;28;19932;-63
2022/11/23 06:32:11;;;;;;;;;;;;;;;6.74;100.00;99578.09;4992932;28;20133;-59
2022/11/23 06:34:37;;;;;;;;;;;;;;;6.75;100.00;99579.72;4993890;28;19928;-60
2022/11/23 06:37:02;;;;;;;;;;;;;;;6.73;100.00;99577.31;4994115;28;19914;-60
2022/11/23 06:39:27;;;;;;;;;;;;;;;6.73;100.00;99577.31;4994237;28;19980;-60
2022/11/23 06:41:52;;;;;;;;;;;;;;;6.77;100.00;99585.72;4994138;28;19917;-59
2022/11/23 06:44:17;;;;;;;;;;;;;;;6.74;100.00;99587.19;4994087;28;19980;-58
2022/11/23 06:46:43;;;;;;;;;;;;;;;6.75;100.00;99585.22;4993725;28;19913;-58
2022/11/23 06:49:08;;;;;;;;;;;;;;;6.73;100.00;99585.53;4994269;28;20376;-58
2022/11/23 06:51:33;;;;;;;;;;;;;;;6.73;100.00;99591.03;4991463;28;19961;-60
2022/11/23 06:53:58;;;;;;;;;;;;;;;6.74;100.00;99594.59;4993703;28;19914;-60
2022/11/23 06:56:24;;;;;;;;;;;;;;;6.71;100.00;99588.59;4993587;28;19913;-59
2022/11/23 06:58:49;;;;;;;;;;;;;;;6.71;100.00;99591.34;4993603;28;20009;-58
2022/11/23 07:01:14;;;;;;;;;;;;;;;6.70;100.00;99591.66;4993715;28;19920;-59
2022/11/23 07:03:39;;;;;;;;;;;;;;;6.70;100.00;99603.47;4993508;28;19984;-58
2022/11/23 07:06:08;;;;;;;;;;;;;;;6.71;100.00;99615.28;4992785;28;20591;-59
2022/11/23 07:08:34;;;;;;;;;;;;;;;6.69;100.00;99618.34;4993640;28;19918;-60
2022/11/23 07:11:04;;;;;;;;;;;;;;;6.70;100.00;99617.22;4993482;28;19914;-59
2022/11/23 07:13:29;;;;;;;;;;;;;;;6.69;100.00;99623.84;4993329;28;19963;-58
2022/11/23 07:15:55;;;;;;;;;;;;;;;6.71;100.00;99624.31;4993486;28;19913;-58
2022/11/23 07:18:21;;;;;;;;;;;;;;;6.70;100.00;99627.38;4994148;28;19921;-59
2022/11/23 07:20:46;;;;;;;;;;;;;;;6.70;100.00;99625.47;4993702;28;19921;-59
2022/11/23 07:23:11;;;;;;;;;;;;;;;6.70;100.00;99635.63;4993524;28;20393;-59
2022/11/23 07:25:37;;;;;;;;;;;;;;;6.67;100.00;99639.00;4993699;28;19914;-60
2022/11/23 07:28:03;;;;;;;;;;;;;;;6.63;100.00;99641.53;4993593;28;19922;-59
2022/11/23 07:30:29;;;;;;;;;;;;;;;6.60;100.00;99641.34;4993630;28;19918;-59
2022/11/23 07:32:58;;;;;;;;;;;;;;;6.60;100.00;99638.59;4993690;28;20369;-59
2022/11/23 07:35:23;;;;;;;;;;;;;;;6.59;100.00;99640.56;4993598;28;20380;-58
2022/11/23 07:37:48;;;;;;;;;;;;;;;6.60;100.00;99647.69;4993771;28;19921;-58
2022/11/23 07:40:14;;;;;;;;;;;;;;;6.61;100.00;99652.06;4993324;28;19922;-59
2022/11/23 07:42:39;;;;;;;;;;;;;;;6.71;100.00;99648.25;4992635;28;19918;-58
2022/11/23 07:45:04;;;;;;;;;;;;;;;6.67;100.00;99645.31;4993205;28;19918;-59
2022/11/23 07:47:30;;;;;;;;;;;;;;;6.67;100.00;99655.47;4990151;28;19984;-58
2022/11/23 07:49:55;;;;;;;;;;;;;;;6.61;100.00;99653.97;4993361;28;19960;-59
2022/11/23 07:52:20;;;;;;;;;;;;;;;6.57;100.00;99670.28;4993188;28;19987;-60
2022/11/23 07:54:45;;;;;;;;;;;;;;;6.58;100.00;99662.81;4993300;28;19913;-59
2022/11/23 07:57:10;;;;;;;;;;;;;;;6.48;100.00;99670.16;4991929;28;20285;-59
2022/11/23 07:59:36;;;;;;;;;;;;;;;6.44;100.00;99669.19;4973818;28;19914;-58
2022/11/23 08:02:01;;;;;;;;;;;;;;;6.40;100.00;99665.41;4973614;28;19914;-58
2022/11/23 08:04:26;;;;;;;;;;;;;;;6.36;100.00;99676.19;4973801;28;19971;-60
2022/11/23 08:06:52;;;;;;;;;;;;;;;6.44;100.00;99674.66;4974298;28;19914;-59
2022/11/23 08:09:17;;;;;;;;;;;;;;;6.34;100.00;99672.94;4973960;28;20000;-57
2022/11/23 08:11:43;;;;;;;;;;;;;;;6.34;100.00;99670.19;4973823;28;20032;-58
2022/11/23 08:14:08;;;;;;;;;;;;;;;6.34;100.00;99672.94;4973717;28;19925;-58
2022/11/23 08:16:33;;;;;;;;;;;;;;;6.35;100.00;99673.75;4973769;28;19925;-59
2022/11/23 08:18:59;;;;;;;;;;;;;;;6.33;100.00;99682.28;4980613;28;19917;-61
2022/11/23 08:21:25;;;;;;;;;;;;;;;6.32;100.00;99677.94;4974099;28;19992;-60
2022/11/23 08:23:50;;;;;;;;;;;;;;;6.31;100.00;99672.72;4972580;28;20371;-59
2022/11/23 08:26:15;;;;;;;;;;;;;;;6.33;100.00;99678.75;4972411;28;19950;-59
2022/11/23 08:28:40;;;;;;;;;;;;;;;6.33;100.00;99678.75;4972638;28;19922;-59
2022/11/23 08:31:07;;;;;;;;;;;;;;;6.36;100.00;99683.63;4971908;28;19921;-59
2022/11/23 08:33:32;;;;;;;;;;;;;;;6.34;100.00;99677.63;4968068;28;19919;-59
2022/11/23 08:36:01;;;;;;;;;;;;;;;6.36;100.00;99678.13;4972542;28;19981;-60
2022/11/23 08:38:26;;;;;;;;;;;;;;;6.38;100.00;99676.72;4970186;28;19922;-59
2022/11/23 08:40:56;;;;;;;;;;;;;;;6.38;100.00;99684.13;4972149;28;20407;-60
2022/11/23 08:43:21;;;;;;;;;;;;;;;6.40;100.00;99682.72;4969307;28;20635;-60
2022/11/23 08:45:46;;;;;;;;;;;;;;;6.43;100.00;99692.28;4972431;28;19969;-61
2022/11/23 08:48:12;;;;;;;;;;;;;;;6.43;100.00;99692.28;4971991;28;19997;-59
2022/11/23 08:50:37;;;;;;;;;;;;;;;6.52;100.00;99693.19;4971835;28;20592;-60
2022/11/23 08:53:02;;;;;;;;;;;;;;;6.49;100.00;99692.97;4971887;28;19914;-59
2022/11/23 08:55:29;;;;;;;;;;;;;;;6.48;100.00;99689.41;4971306;28;19976;-59
2022/11/23 08:57:55;;;;;;;;;;;;;;;6.50;100.00;99686.38;4972062;28;19926;-58
2022/11/23 09:00:20;;;;;;;;;;;;;;;6.52;100.00;99684.94;4972598;28;19918;-59
2022/11/23 09:02:45;;;;;;;;;;;;;;;6.53;100.00;99682.97;4972549;28;20353;-59
2022/11/23 09:05:11;;;;;;;;;;;;;;;6.58;100.00;99680.16;4971966;28;19981;-58
2022/11/23 09:07:36;;;;;;;;;;;;;;;6.57;100.00;99675.75;4972331;28;20033;-59
2022/11/23 09:10:01;;;;;;;;;;;;;;;6.59;100.00;99684.53;4972683;28;19918;-58
2022/11/23 09:12:26;;;;;;;;;;;;;;;6.63;100.00;99676.47;4968607;28;19949;-59
2022/11/23 09:14:52;;;;;;;;;;;;;;;6.72;100.00;99678.16;4987855;28;19919;-59
2022/11/23 09:17:17;;;;;;;;;;;;;;;6.70;100.00;99674.09;4966632;28;19915;-59
2022/11/23 09:19:49;;;;;;;;;;;;;;;6.71;100.00;99676.53;4953016;28;20374;-61
2022/11/23 09:22:14;;;;;;;;;;;;;;;6.77;100.00;99671.75;4952839;29;19922;-59
2022/11/23 09:24:39;;;;;;;;;;;;;;;6.75;100.00;99676.75;4952835;28;19934;-60
2022/11/23 09:27:05;;;;;;;;;;;;;;;6.78;100.00;99662.38;4952846;28;19914;-58
2022/11/23 09:29:30;;;;;;;;;;;;;;;6.82;100.00;99665.31;4952938;28;19937;-58
2022/11/23 09:31:55;;;;;;;;;;;;;;;6.83;100.00;99662.28;4956283;28;19913;-59
2022/11/23 09:34:20;;;;;;;;;;;;;;;6.87;100.00;99663.25;4972040;28;19914;-59
2022/11/23 09:36:46;;;;;;;;;;;;;;;6.91;100.00;99665.41;4971461;28;19914;-59
2022/11/23 09:39:11;;;;;;;;;;;;;;;6.96;100.00;99665.28;4968855;28;19914;-59
2022/11/23 09:41:57;;;;;;;;;;;;;;;6.94;100.00;99662.84;4971566;28;19926;-59
2022/11/23 09:44:22;;;;;;;;;;;;;;;6.96;99.98;99657.03;4971251;28;19918;-60
2022/11/23 09:46:47;;;;;;;;;;;;;;;6.99;99.30;99643.47;4971802;28;19936;-60
2022/11/23 09:49:12;;;;;;;;;;;;;;;7.02;99.21;99642.06;4971454;28;19976;-59
2022/11/23 09:51:39;;;;;;;;;;;;;;;7.06;99.78;99647.72;4971628;28;19922;-60
2022/11/23 09:54:10;;;;;;;;;;;;;;;7.08;99.20;99643.53;4971466;28;19922;-59
2022/11/23 09:56:37;;;;;;;;;;;;;;;7.15;99.87;99651.38;4971866;28;19925;-59
2022/11/23 09:59:10;;;;;;;;;;;;;;;7.16;97.81;99644.75;4970483;28;20388;-59
2022/11/23 10:01:36;;;;;;;;;;;;;;;7.20;97.95;99633.91;4971737;28;20701;-59
2022/11/23 10:04:02;;;;;;;;;;;;;;;7.20;98.25;99628.41;4971462;28;19918;-59
2022/11/23 10:06:30;;;;;;;;;;;;;;;7.22;97.21;99620.69;4972440;28;19929;-59
2022/11/23 10:08:59;;;;;;;;;;;;;;;7.20;96.72;99614.66;4973728;28;19917;-60
2022/11/23 10:11:58;;;;;;;;;;;;;;;7.17;96.60;99610.63;4975508;28;20358;-59
2022/11/23 10:14:51;;;;;;;;;;;;;;;7.24;96.09;99619.22;4963392;28;19961;-59
2022/11/23 10:17:22;;;;;;;;;;;;;;;7.29;97.50;99610.03;4974819;28;19914;-59
2022/11/23 10:19:47;;;;;;;;;;;;;;;7.32;96.91;99601.97;4974827;28;20289;-59
2022/11/23 10:22:21;;;;;;;;;;;;;;;7.33;95.62;99600.84;4973403;28;19924;-59
2022/11/23 10:24:49;;;;;;;;;;;;;;;7.37;96.33;99598.25;4975412;28;20065;-58
2022/11/23 10:27:16;;;;;;;;;;;;;;;7.41;96.54;99604.78;4975113;28;19928;-59
2022/11/23 10:29:42;;;;;;;;;;;;;;;7.49;96.30;99583.91;4974805;28;20391;-59
2022/11/23 10:32:26;;;;;;;;;;;;;;;7.49;96.62;99593.00;4973549;28;19918;-60
2022/11/23 10:35:10;;;;;;;;;;;;;;;7.56;97.84;99589.75;4973793;28;19921;-59
2022/11/23 10:37:37;;;;;;;;;;;;;;;7.58;95.42;99590.25;4975036;28;20005;-60
2022/11/23 10:40:02;;;;;;;;;;;;;;;7.65;94.92;99598.06;4974885;28;20423;-60
2022/11/23 10:42:41;;;;;;;;;;;;;;;7.66;94.31;99594.19;4974606;28;19914;-60
2022/11/23 10:45:16;;;;;;;;;;;;;;;7.68;93.86;99589.19;4974464;28;19918;-60
2022/11/23 10:47:49;;;;;;;;;;;;;;;7.72;93.26;99587.41;4974755;28;20004;-59
2022/11/23 10:50:25;;;;;;;;;;;;;;;7.76;94.44;99590.34;4974645;28;20353;-59
2022/11/23 10:52:55;;;;;;;;;;;;;;;7.81;92.79;99587.44;4974493;28;19949;-59
2022/11/23 10:55:23;;;;;;;;;;;;;;;7.85;94.07;99590.38;4970856;28;19923;-60
2022/11/23 10:57:48;;;;;;;;;;;;;;;7.90;95.01;99585.53;4961872;28;19918;-59
2022/11/23 11:00:15;;;;;;;;;;;;;;;7.95;92.62;99584.59;4968708;28;20263;-60
2022/11/23 11:02:43;;;;;;;;;;;;;;;7.99;91.41;99571.78;4967819;28;19996;-60
2022/11/23 11:05:12;;;;;;;;;;;;;;;8.04;92.54;99582.66;4963079;28;20006;-60
2022/11/23 11:07:38;;;;;;;;;;;;;;;8.09;92.20;99574.25;4955400;28;20327;-59
2022/11/23 11:10:03;;;;;;;;;;;;;;;8.16;92.38;99567.47;4955238;28;19925;-60
2022/11/23 11:12:32;;;;;;;;;;;;;;;8.20;91.27;99560.16;4970591;28;19929;-59
2022/11/23 11:15:16;;;;;;;;;;;;;;;8.25;90.73;99560.81;4974743;28;20385;-59
2022/11/23 11:17:41;;;;;;;;;;;;;;;8.34;91.08;99558.09;4973924;28;20355;-60
2022/11/23 11:20:25;;;;;;;;;;;;;;;8.35;89.46;99561.66;4972521;28;20466;-60
2022/11/23 11:22:50;;;;;;;;;;;;;;;8.46;90.46;99553.84;4973988;28;20354;-60
2022/11/23 11:25:42;;;;;;;;;;;;;;;8.55;90.00;99552.78;4974618;28;20013;-59
2022/11/23 11:28:24;;;;;;;;;;;;;;;8.63;89.92;99547.56;4973946;28;19973;-60
2022/11/23 11:31:08;;;;;;;;;;;;;;;8.68;90.76;99555.69;4972178;28;19965;-60
2022/11/23 11:33:39;;;;;;;;;;;;;;;8.67;89.26;99549.34;4974266;28;20792;-59
2022/11/23 11:36:06;;;;;;;;;;;;;;;8.72;88.73;99554.72;4974043;28;20362;-60
2022/11/23 11:38:36;;;;;;;;;;;;;;;8.86;89.55;99540.75;4973689;28;19918;-59
2022/11/23 11:41:06;;;;;;;;;;;;;;;8.93;88.04;99545.75;4973871;28;19918;-59
2022/11/23 11:43:43;;;;;;;;;;;;;;;9.01;86.71;99539.44;4973442;28;20008;-59
2022/11/23 11:46:15;;;;;;;;;;;;;;;9.06;87.15;99530.19;4973511;28;19986;-59
2022/11/23 11:48:54;;;;;;;;;;;;;;;9.05;86.91;99531.31;4973329;28;20065;-58
2022/11/23 11:51:20;;;;;;;;;;;;;;;9.05;86.14;99518.31;4973364;28;19917;-59
2022/11/23 11:53:54;;;;;;;;;;;;;;;9.08;86.96;99513.28;4973448;28;20374;-59
2022/11/23 11:56:33;;;;;;;;;;;;;;;9.09;87.83;99503.88;4973515;28;20754;-59
2022/11/23 11:59:18;;;;;;;;;;;;;;;9.11;89.21;99498.84;4973651;28;20111;-60
2022/11/23 12:01:50;;;;;;;;;;;;;;;9.14;86.96;99498.16;4972357;28;19918;-61
2022/11/23 12:04:36;;;;;;;;;;;;;;;9.10;85.02;99498.03;4973229;28;20340;-60
2022/11/23 12:07:11;;;;;;;;;;;;;;;9.10;88.09;99492.50;4973157;28;20317;-59
2022/11/23 12:09:39;;;;;;;;;;;;;;;9.07;84.40;99487.63;4973019;28;19914;-60
2022/11/23 12:12:10;;;;;;;;;;;;;;;9.10;86.32;99486.19;4972849;28;19918;-60
2022/11/23 12:14:35;;;;;;;;;;;;;;;9.08;85.78;99482.94;4972970;28;19914;-60
2022/11/23 12:17:06;;;;;;;;;;;;;;;9.09;85.88;99485.34;4972896;28;19965;-62
2022/11/23 12:19:42;;;;;;;;;;;;;;;9.10;85.70;99486.97;4972604;28;19918;-59
2022/11/23 12:22:13;;;;;;;;;;;;;;;9.11;85.76;99487.81;4972754;28;19914;-60
2022/11/23 12:24:39;;;;;;;;;;;;;;;9.17;86.02;99483.72;4970237;28;20001;-59
2022/11/23 12:27:16;;;;;;;;;;;;;;;9.19;85.79;99486.97;4972552;28;20353;-60
2022/11/23 12:29:41;;;;;;;;;;;;;;;9.24;85.11;99474.94;4972170;28;19988;-60
2022/11/23 12:32:18;;;;;;;;;;;;;;;9.27;85.08;99475.09;4971844;28;19914;-57
2022/11/23 12:34:58;;;;;;;;;;;;;;;9.28;84.51;99475.88;4971295;28;20318;-59
2022/11/23 12:37:41;;;;;;;;;;;;;;;9.28;84.57;99475.88;4971676;28;19991;-59
2022/11/23 12:40:18;;;;;;;;;;;;;;;9.33;84.83;99476.50;4971369;28;20028;-60
2022/11/23 12:42:47;;;;;;;;;;;;;;;9.32;85.35;99463.06;4971101;28;19914;-59
2022/11/23 12:45:30;;;;;;;;;;;;;;;9.32;84.10;99463.84;4971470;28;20384;-60
2022/11/23 12:47:55;;;;;;;;;;;;;;;9.33;85.48;99470.97;4971829;28;19995;-60
2022/11/23 12:50:24;;;;;;;;;;;;;;;9.35;85.62;99465.94;4971357;28;20001;-59